createdAt,value
2018-08-28T00:00:20.929Z,0.00
2018-08-28T00:01:20.884Z,0.00
2018-08-28T00:02:20.830Z,0.00
2018-08-28T00:03:20.823Z,0.00
2018-08-28T00:04:20.771Z,0.00
2018-08-28T00:05:20.727Z,0.00
2018-08-28T00:06:20.704Z,0.00
2018-08-28T00:07:20.679Z,0.00
2018-08-28T00:08:20.629Z,0.00
2018-08-28T00:09:20.584Z,0.00
2018-08-28T00:10:20.553Z,0.00
2018-08-28T00:11:20.526Z,0.00
2018-08-28T00:12:20.510Z,0.00
2018-08-28T00:13:20.476Z,0.00
2018-08-28T00:14:20.418Z,0.00
2018-08-28T00:15:20.376Z,0.00
2018-08-28T00:16:20.340Z,0.00
2018-08-28T00:17:20.300Z,0.00
2018-08-28T00:18:20.291Z,0.00
2018-08-28T00:19:20.240Z,0.00
2018-08-28T00:20:20.205Z,0.00
2018-08-28T00:21:20.157Z,0.00
2018-08-28T00:23:58.198Z,0.00
2018-08-28T00:24:51.934Z,0.00
2018-08-28T00:26:45.538Z,0.00
2018-08-28T00:27:44.808Z,0.00
2018-08-28T00:29:38.241Z,0.00
2018-08-28T00:30:37.966Z,0.00
2018-08-28T00:34:05.869Z,0.00
2018-08-28T00:35:05.064Z,0.00
2018-08-28T00:36:58.114Z,0.00
2018-08-28T00:37:57.649Z,0.00
2018-08-28T00:39:50.961Z,0.00
2018-08-28T00:40:50.571Z,0.00
2018-08-28T00:42:43.985Z,0.00
2018-08-28T00:43:43.468Z,0.00
2018-08-28T00:45:37.343Z,0.00
2018-08-28T00:46:37.177Z,0.00
2018-08-28T00:48:30.420Z,0.00
2018-08-28T00:49:29.881Z,0.00
2018-08-28T00:51:23.226Z,0.00
2018-08-28T00:52:22.880Z,0.00
2018-08-28T00:54:16.855Z,0.00
2018-08-28T00:55:15.908Z,0.00
2018-08-28T00:57:09.215Z,0.00
2018-08-28T00:58:08.720Z,0.00
2018-08-28T01:00:02.310Z,0.00
2018-08-28T01:01:01.732Z,0.00
2018-08-28T01:02:57.236Z,0.00
2018-08-28T01:03:56.637Z,0.00
2018-08-28T01:05:50.141Z,0.00
2018-08-28T01:06:49.748Z,0.00
2018-08-28T01:08:43.051Z,0.00
2018-08-28T01:09:42.952Z,0.00
2018-08-28T01:11:36.611Z,0.00
2018-08-28T01:12:36.485Z,0.00
2018-08-28T01:14:29.509Z,0.00
2018-08-28T01:15:29.090Z,0.00
2018-08-28T01:17:22.453Z,0.00
2018-08-28T01:18:21.994Z,0.00
2018-08-28T01:20:27.942Z,0.00
2018-08-28T01:21:27.503Z,0.00
2018-08-28T01:23:20.641Z,0.00
2018-08-28T01:24:20.062Z,0.00
2018-08-28T01:26:13.457Z,0.00
2018-08-28T01:27:13.097Z,0.00
2018-08-28T01:29:08.017Z,0.00
2018-08-28T01:30:07.689Z,0.00
2018-08-28T01:32:01.397Z,0.00
2018-08-28T01:33:00.487Z,0.00
2018-08-28T01:34:53.965Z,0.00
2018-08-28T01:35:53.550Z,0.00
2018-08-28T01:37:47.044Z,0.00
2018-08-28T01:38:46.493Z,0.00
2018-08-28T01:40:41.364Z,0.00
2018-08-28T01:41:40.856Z,0.00
2018-08-28T01:43:34.281Z,0.00
2018-08-28T01:44:33.835Z,0.00
2018-08-28T01:46:41.988Z,0.00
2018-08-28T01:47:41.737Z,0.00
2018-08-28T01:49:36.483Z,0.00
2018-08-28T01:50:36.396Z,0.00
2018-08-28T01:52:29.509Z,0.00
2018-08-28T01:53:29.072Z,0.00
2018-08-28T01:55:22.805Z,0.00
2018-08-28T01:56:22.531Z,0.00
2018-08-28T01:58:15.900Z,0.00
2018-08-28T01:59:15.792Z,0.00
2018-08-28T02:01:09.387Z,0.00
2018-08-28T02:02:08.930Z,0.00
2018-08-28T02:04:02.307Z,0.00
2018-08-28T02:05:01.812Z,0.00
2018-08-28T02:06:56.848Z,0.00
2018-08-28T02:07:56.385Z,0.00
2018-08-28T02:09:50.297Z,0.00
2018-08-28T02:10:49.361Z,0.00
2018-08-28T02:12:42.688Z,0.00
2018-08-28T02:13:42.390Z,0.00
2018-08-28T02:15:36.327Z,0.00
2018-08-28T02:16:35.843Z,0.00
2018-08-28T02:18:29.246Z,0.00
2018-08-28T02:19:28.938Z,0.00
2018-08-28T02:21:22.809Z,0.00
2018-08-28T02:22:22.543Z,0.00
2018-08-28T02:24:17.205Z,0.00
2018-08-28T02:25:16.921Z,0.00
2018-08-28T02:27:10.256Z,0.00
2018-08-28T02:28:10.117Z,0.00
2018-08-28T02:30:03.607Z,0.00
2018-08-28T02:31:03.317Z,0.00
2018-08-28T02:32:56.674Z,0.00
2018-08-28T02:33:56.239Z,0.00
2018-08-28T02:35:50.019Z,0.00
2018-08-28T02:36:49.691Z,0.00
2018-08-28T02:38:43.133Z,0.00
2018-08-28T02:39:42.848Z,0.00
2018-08-28T02:41:35.988Z,0.00
2018-08-28T02:42:35.617Z,0.00
2018-08-28T02:44:30.600Z,0.00
2018-08-28T02:45:30.450Z,0.00
2018-08-28T02:47:23.486Z,0.00
2018-08-28T02:48:23.152Z,0.00
2018-08-28T02:50:16.967Z,0.00
2018-08-28T02:51:15.983Z,0.00
2018-08-28T02:53:09.874Z,0.00
2018-08-28T02:54:09.074Z,0.00
2018-08-28T02:56:02.369Z,0.00
2018-08-28T02:57:01.975Z,0.00
2018-08-28T02:58:57.368Z,0.00
2018-08-28T02:59:56.465Z,0.00
2018-08-28T03:01:49.883Z,0.00
2018-08-28T03:02:49.781Z,0.00
2018-08-28T03:04:43.283Z,0.00
2018-08-28T03:05:43.020Z,0.00
2018-08-28T03:07:36.170Z,0.00
2018-08-28T03:08:35.804Z,0.00
2018-08-28T03:10:29.173Z,0.00
2018-08-28T03:11:28.865Z,0.00
2018-08-28T03:13:22.635Z,0.00
2018-08-28T03:14:22.182Z,0.00
2018-08-28T03:16:15.507Z,0.00
2018-08-28T03:17:15.150Z,0.00
2018-08-28T03:19:10.590Z,0.00
2018-08-28T03:20:09.680Z,0.00
2018-08-28T03:22:03.014Z,0.00
2018-08-28T03:23:02.701Z,0.00
2018-08-28T03:24:56.505Z,0.00
2018-08-28T03:25:55.576Z,0.00
2018-08-28T03:27:48.882Z,0.00
2018-08-28T03:28:48.481Z,0.00
2018-08-28T03:30:43.449Z,0.00
2018-08-28T03:31:43.424Z,0.00
2018-08-28T03:33:36.324Z,0.00
2018-08-28T03:34:35.975Z,0.00
2018-08-28T03:36:30.873Z,0.00
2018-08-28T03:37:30.292Z,0.00
2018-08-28T03:39:23.299Z,0.00
2018-08-28T03:40:23.307Z,0.00
2018-08-28T03:42:16.355Z,0.00
2018-08-28T03:43:15.941Z,0.00
2018-08-28T03:45:09.352Z,0.00
2018-08-28T03:46:08.989Z,0.00
2018-08-28T03:48:02.957Z,4.00
2018-08-28T03:49:02.563Z,4.00
2018-08-28T03:50:56.612Z,4.00
2018-08-28T03:51:57.223Z,4.00
2018-08-28T03:53:49.660Z,8.00
2018-08-28T03:54:49.559Z,8.00
2018-08-28T03:56:43.985Z,12.00
2018-08-28T03:57:43.138Z,12.00
2018-08-28T03:59:36.594Z,16.00
2018-08-28T04:00:36.337Z,20.00
2018-08-28T04:02:29.597Z,36.00
2018-08-28T04:03:29.153Z,40.00
2018-08-28T04:05:22.666Z,56.00
2018-08-28T04:06:22.485Z,68.00
2018-08-28T04:08:16.232Z,88.00
2018-08-28T04:09:16.114Z,104.00
2018-08-28T04:11:09.991Z,132.00
2018-08-28T04:12:08.894Z,148.00
2018-08-28T04:14:02.368Z,188.00
2018-08-28T04:15:02.082Z,204.00
2018-08-28T04:16:55.906Z,240.00
2018-08-28T04:17:55.813Z,268.00
2018-08-28T04:19:48.758Z,328.00
2018-08-28T04:20:48.501Z,360.00
2018-08-28T04:22:41.952Z,428.00
2018-08-28T04:23:41.673Z,472.00
2018-08-28T04:25:35.911Z,548.00
2018-08-28T04:26:35.119Z,596.00
2018-08-28T04:28:28.477Z,688.00
2018-08-28T04:29:28.402Z,736.00
2018-08-28T04:31:21.940Z,828.00
2018-08-28T04:32:21.048Z,880.00
2018-08-28T04:34:14.510Z,972.00
2018-08-28T04:35:14.109Z,1012.00
2018-08-28T04:37:08.126Z,1112.00
2018-08-28T04:38:08.002Z,1164.00
2018-08-28T04:40:01.230Z,1296.00
2018-08-28T04:41:00.890Z,1372.00
2018-08-28T04:42:54.861Z,1512.00
2018-08-28T04:43:54.384Z,1588.00
2018-08-28T04:45:52.546Z,1736.00
2018-08-28T04:46:52.754Z,1840.00
2018-08-28T04:48:45.791Z,2076.00
2018-08-28T04:49:45.685Z,2204.00
2018-08-28T04:51:39.258Z,2368.00
2018-08-28T04:52:39.295Z,2440.00
2018-08-28T04:54:33.760Z,2632.00
2018-08-28T04:55:33.396Z,2748.00
2018-08-28T04:57:26.751Z,2952.00
2018-08-28T04:58:26.279Z,3036.00
2018-08-28T05:00:19.573Z,3232.00
2018-08-28T05:01:19.272Z,3384.00
2018-08-28T05:03:14.243Z,3544.00
2018-08-28T05:04:13.771Z,3640.00
2018-08-28T05:06:07.564Z,3756.00
2018-08-28T05:07:07.311Z,3844.00
2018-08-28T05:09:00.644Z,4124.00
2018-08-28T05:10:00.473Z,4312.00
2018-08-28T05:11:55.606Z,4764.00
2018-08-28T05:12:54.991Z,4940.00
2018-08-28T05:14:48.094Z,5236.00
2018-08-28T05:15:47.936Z,5380.00
2018-08-28T05:17:43.025Z,5700.00
2018-08-28T05:18:42.460Z,5880.00
2018-08-28T05:20:35.551Z,6236.00
2018-08-28T05:21:35.193Z,6428.00
2018-08-28T05:23:28.495Z,6676.00
2018-08-28T05:24:28.292Z,6812.00
2018-08-28T05:26:21.360Z,6924.00
2018-08-28T05:27:20.924Z,7020.00
2018-08-28T05:29:14.289Z,7200.00
2018-08-28T05:30:14.242Z,7296.00
2018-08-28T05:32:07.298Z,7576.00
2018-08-28T05:33:07.182Z,7860.00
2018-08-28T05:35:00.211Z,8552.00
2018-08-28T05:36:00.215Z,8820.00
2018-08-28T05:37:53.325Z,9108.00
2018-08-28T05:38:53.748Z,9288.00
2018-08-28T05:40:46.558Z,9592.00
2018-08-28T05:41:46.201Z,9780.00
2018-08-28T05:43:39.254Z,10224.00
2018-08-28T05:44:38.762Z,10664.00
2018-08-28T05:46:32.279Z,11444.00
2018-08-28T05:47:31.800Z,11672.00
2018-08-28T05:49:25.854Z,11780.00
2018-08-28T05:50:25.286Z,11944.00
2018-08-28T05:52:18.852Z,12264.00
2018-08-28T05:53:18.064Z,12296.00
2018-08-28T05:55:11.394Z,12244.00
2018-08-28T05:56:11.357Z,12196.00
2018-08-28T05:58:04.313Z,12144.00
2018-08-28T05:59:04.194Z,12188.00
2018-08-28T06:00:59.316Z,12220.00
2018-08-28T06:01:58.717Z,12472.00
2018-08-28T06:03:52.258Z,12968.00
2018-08-28T06:04:52.211Z,13152.00
2018-08-28T06:06:45.712Z,13316.00
2018-08-28T06:07:46.182Z,13432.00
2018-08-28T06:09:38.674Z,13756.00
2018-08-28T06:10:38.369Z,13764.00
2018-08-28T06:12:32.255Z,13932.00
2018-08-28T06:13:31.296Z,14112.00
2018-08-28T06:14:31.642Z,14224.00
2018-08-28T06:15:32.068Z,14340.00
2018-08-28T06:16:31.589Z,14244.00
2018-08-28T06:17:31.564Z,14196.00
2018-08-28T06:18:31.472Z,14448.00
2018-08-28T06:19:32.003Z,14900.00
2018-08-28T06:20:31.401Z,15420.00
2018-08-28T06:21:31.897Z,15820.00
2018-08-28T06:22:31.390Z,15964.00
2018-08-28T06:23:31.282Z,15900.00
2018-08-28T06:24:30.898Z,15772.00
2018-08-28T06:25:31.308Z,15604.00
2018-08-28T06:26:31.042Z,15504.00
2018-08-28T06:27:30.837Z,15312.00
2018-08-28T06:28:30.750Z,15128.00
2018-08-28T06:29:31.102Z,15096.00
2018-08-28T06:30:31.524Z,15120.00
2018-08-28T06:31:31.055Z,15300.00
2018-08-28T06:32:31.037Z,15576.00
2018-08-28T06:33:31.023Z,15892.00
2018-08-28T06:34:30.958Z,16168.00
2018-08-28T06:35:30.467Z,16520.00
2018-08-28T06:36:30.522Z,16892.00
2018-08-28T06:37:30.487Z,17324.00
2018-08-28T06:38:30.381Z,17696.00
2018-08-28T06:39:30.353Z,17952.00
2018-08-28T06:40:30.322Z,18048.00
2018-08-28T06:41:30.314Z,18208.00
2018-08-28T06:42:30.269Z,18368.00
2018-08-28T06:43:30.280Z,18688.00
2018-08-28T06:44:30.191Z,19008.00
2018-08-28T06:45:30.235Z,19360.00
2018-08-28T06:46:30.158Z,19744.00
2018-08-28T06:47:30.150Z,20192.00
2018-08-28T06:48:30.106Z,20448.00
2018-08-28T06:49:30.066Z,20608.00
2018-08-28T06:50:30.020Z,20768.00
2018-08-28T06:51:30.669Z,20864.00
2018-08-28T06:52:29.924Z,21024.00
2018-08-28T06:53:29.919Z,21344.00
2018-08-28T06:54:29.878Z,21504.00
2018-08-28T06:55:29.858Z,22048.00
2018-08-28T06:56:29.821Z,22624.00
2018-08-28T06:57:29.816Z,22848.00
2018-08-28T06:58:29.783Z,23200.00
2018-08-28T06:59:29.717Z,23616.00
2018-08-28T07:00:29.670Z,23904.00
2018-08-28T07:01:29.638Z,23808.00
2018-08-28T07:02:29.621Z,23584.00
2018-08-28T07:03:29.569Z,23328.00
2018-08-28T07:04:29.559Z,23008.00
2018-08-28T07:05:29.529Z,22656.00
2018-08-28T07:06:29.496Z,22240.00
2018-08-28T07:07:29.469Z,21920.00
2018-08-28T07:08:29.487Z,21760.00
2018-08-28T07:09:29.380Z,21664.00
2018-08-28T07:10:29.374Z,21792.00
2018-08-28T07:11:29.351Z,22016.00
2018-08-28T07:12:29.287Z,22304.00
2018-08-28T07:13:29.269Z,22784.00
2018-08-28T07:14:29.222Z,23232.00
2018-08-28T07:15:29.190Z,23840.00
2018-08-28T07:16:29.164Z,24416.00
2018-08-28T07:17:29.135Z,24640.00
2018-08-28T07:18:29.119Z,24736.00
2018-08-28T07:19:29.086Z,25056.00
2018-08-28T07:20:29.037Z,25696.00
2018-08-28T07:21:29.025Z,26592.00
2018-08-28T07:22:29.007Z,27616.00
2018-08-28T07:23:28.940Z,28608.00
2018-08-28T07:24:28.936Z,29408.00
2018-08-28T07:25:28.928Z,29728.00
2018-08-28T07:26:28.858Z,29920.00
2018-08-28T07:27:28.838Z,29984.00
2018-08-28T07:28:28.788Z,30336.00
2018-08-28T07:29:28.762Z,31008.00
2018-08-28T07:30:28.735Z,35200.00
2018-08-28T07:31:28.831Z,31648.00
2018-08-28T07:32:28.740Z,31808.00
2018-08-28T07:33:28.647Z,32352.00
2018-08-28T07:34:28.601Z,33088.00
2018-08-28T07:35:28.582Z,33952.00
2018-08-28T07:36:28.558Z,35136.00
2018-08-28T07:37:28.569Z,36640.00
2018-08-28T07:38:28.499Z,37376.00
2018-08-28T07:39:28.459Z,37312.00
2018-08-28T07:40:28.441Z,37440.00
2018-08-28T07:41:28.400Z,37088.00
2018-08-28T07:42:28.368Z,36320.00
2018-08-28T07:43:28.341Z,35648.00
2018-08-28T07:44:28.316Z,35040.00
2018-08-28T07:45:28.308Z,34624.00
2018-08-28T07:46:28.250Z,34176.00
2018-08-28T07:47:28.211Z,34048.00
2018-08-28T07:48:28.233Z,34368.00
2018-08-28T07:49:28.147Z,34880.00
2018-08-28T07:50:28.128Z,35488.00
2018-08-28T07:51:28.085Z,36416.00
2018-08-28T07:52:28.067Z,37440.00
2018-08-28T07:53:28.043Z,38112.00
2018-08-28T07:54:28.013Z,38272.00
2018-08-28T07:55:27.969Z,38400.00
2018-08-28T07:56:27.953Z,38464.00
2018-08-28T07:57:27.916Z,38560.00
2018-08-28T07:58:27.887Z,38592.00
2018-08-28T07:59:27.854Z,38880.00
2018-08-28T08:00:27.838Z,40928.00
2018-08-28T08:01:27.873Z,42656.00
2018-08-28T08:02:27.779Z,41152.00
2018-08-28T08:03:27.732Z,40192.00
2018-08-28T08:04:27.703Z,40128.00
2018-08-28T08:05:27.677Z,40480.00
2018-08-28T08:06:27.672Z,41568.00
2018-08-28T08:07:27.634Z,41568.00
2018-08-28T08:08:27.592Z,40608.00
2018-08-28T08:09:27.569Z,41632.00
2018-08-28T08:10:27.613Z,39808.00
2018-08-28T08:11:27.502Z,40032.00
2018-08-28T08:12:27.496Z,40992.00
2018-08-28T08:13:27.470Z,38944.00
2018-08-28T08:14:27.450Z,38560.00
2018-08-28T08:15:27.409Z,39040.00
2018-08-28T08:16:27.409Z,39648.00
2018-08-28T08:17:27.339Z,40384.00
2018-08-28T08:18:27.306Z,40448.00
2018-08-28T08:19:27.283Z,40672.00
2018-08-28T08:20:27.267Z,41376.00
2018-08-28T08:21:27.219Z,41984.00
2018-08-28T08:22:27.205Z,40032.00
2018-08-28T08:23:27.193Z,39424.00
2018-08-28T08:24:27.140Z,39232.00
2018-08-28T08:25:27.110Z,40576.00
2018-08-28T08:26:27.085Z,40960.00
2018-08-28T08:27:27.058Z,40512.00
2018-08-28T08:28:27.030Z,41984.00
2018-08-28T08:29:27.012Z,44480.00
2018-08-28T08:30:26.974Z,47552.00
2018-08-28T08:31:26.939Z,48864.00
2018-08-28T08:32:26.921Z,54752.00
2018-08-28T08:33:26.936Z,80352.00
2018-08-28T08:34:26.857Z,78528.00
2018-08-28T08:35:26.893Z,64384.00
2018-08-28T08:36:26.792Z,66080.00
2018-08-28T08:37:26.790Z,41312.00
2018-08-28T08:38:26.750Z,37312.00
2018-08-28T08:39:26.723Z,35136.00
2018-08-28T08:40:26.696Z,34592.00
2018-08-28T08:41:26.674Z,35872.00
2018-08-28T08:42:26.635Z,35392.00
2018-08-28T08:43:26.608Z,45472.00
2018-08-28T08:44:26.579Z,49536.00
2018-08-28T08:45:26.561Z,83488.00
2018-08-28T08:46:26.526Z,83584.00
2018-08-28T08:47:26.493Z,71040.00
2018-08-28T08:48:26.475Z,80288.00
2018-08-28T08:49:26.454Z,81440.00
2018-08-28T08:50:26.432Z,76704.00
2018-08-28T08:51:26.414Z,73920.00
2018-08-28T08:52:26.376Z,71104.00
2018-08-28T08:53:26.338Z,77152.00
2018-08-28T08:54:26.339Z,62400.00
2018-08-28T08:55:26.328Z,40736.00
2018-08-28T08:56:26.314Z,45472.00
2018-08-28T08:57:26.334Z,60000.00
2018-08-28T08:58:26.212Z,83040.00
2018-08-28T08:59:26.188Z,81056.00
2018-08-28T09:00:26.185Z,70496.00
2018-08-28T09:01:26.139Z,79584.00
2018-08-28T09:02:26.121Z,82624.00
2018-08-28T09:03:26.098Z,83040.00
2018-08-28T09:04:26.072Z,84416.00
2018-08-28T09:05:26.049Z,78688.00
2018-08-28T09:06:26.029Z,84672.00
2018-08-28T09:07:26.001Z,89120.00
2018-08-28T09:08:25.974Z,92032.00
2018-08-28T09:09:25.947Z,91264.00
2018-08-28T09:10:25.934Z,91072.00
2018-08-28T09:11:25.903Z,91968.00
2018-08-28T09:12:25.876Z,84960.00
2018-08-28T09:13:25.868Z,92320.00
2018-08-28T09:14:25.838Z,100256.00
2018-08-28T09:15:25.819Z,94016.00
2018-08-28T09:16:25.781Z,89536.00
2018-08-28T09:17:25.771Z,64448.00
2018-08-28T09:18:25.753Z,80704.00
2018-08-28T09:19:25.837Z,66336.00
2018-08-28T09:20:25.708Z,67712.00
2018-08-28T09:21:25.679Z,60192.00
2018-08-28T09:22:25.664Z,75360.00
2018-08-28T09:23:25.636Z,78784.00
2018-08-28T09:24:25.611Z,94848.00
2018-08-28T09:25:25.619Z,101120.00
2018-08-28T09:26:25.557Z,96672.00
2018-08-28T09:27:25.536Z,96352.00
2018-08-28T09:28:25.516Z,94592.00
2018-08-28T09:29:25.521Z,95264.00
2018-08-28T09:30:25.470Z,98784.00
2018-08-28T09:31:25.557Z,96064.00
2018-08-28T09:32:25.472Z,95712.00
2018-08-28T09:33:25.420Z,101600.00
2018-08-28T09:34:25.430Z,61824.00
2018-08-28T09:35:25.370Z,110240.00
2018-08-28T09:36:25.346Z,46816.00
2018-08-28T09:37:25.326Z,41568.00
2018-08-28T09:38:25.403Z,41632.00
2018-08-28T09:39:25.292Z,40224.00
2018-08-28T09:40:25.281Z,38880.00
2018-08-28T09:41:25.258Z,37024.00
2018-08-28T09:42:25.237Z,35616.00
2018-08-28T09:43:25.195Z,34624.00
2018-08-28T09:44:25.183Z,34016.00
2018-08-28T09:45:25.172Z,33760.00
2018-08-28T09:46:25.134Z,33600.00
2018-08-28T09:47:25.116Z,33696.00
2018-08-28T09:48:25.123Z,33760.00
2018-08-28T09:49:25.090Z,33664.00
2018-08-28T09:50:25.128Z,33248.00
2018-08-28T09:51:25.021Z,32864.00
2018-08-28T09:52:25.018Z,32576.00
2018-08-28T09:53:24.969Z,32288.00
2018-08-28T09:54:24.963Z,32256.00
2018-08-28T09:55:24.948Z,32512.00
2018-08-28T09:56:24.924Z,33152.00
2018-08-28T09:57:24.881Z,34208.00
2018-08-28T09:58:24.854Z,35552.00
2018-08-28T09:59:24.824Z,37184.00
2018-08-28T10:00:24.802Z,39072.00
2018-08-28T10:01:24.800Z,41248.00
2018-08-28T10:02:24.764Z,43328.00
2018-08-28T10:03:24.745Z,45344.00
2018-08-28T10:04:24.713Z,47968.00
2018-08-28T10:05:24.688Z,52224.00
2018-08-28T10:06:24.669Z,54240.00
2018-08-28T10:07:24.627Z,54272.00
2018-08-28T10:08:24.603Z,56256.00
2018-08-28T10:09:24.600Z,62368.00
2018-08-28T10:10:24.559Z,48416.00
2018-08-28T10:11:24.545Z,46304.00
2018-08-28T10:12:24.510Z,45984.00
2018-08-28T10:13:24.498Z,46528.00
2018-08-28T10:14:24.476Z,47232.00
2018-08-28T10:15:24.430Z,46688.00
2018-08-28T10:16:24.416Z,45280.00
2018-08-28T10:17:24.485Z,43040.00
2018-08-28T10:18:24.385Z,40960.00
2018-08-28T10:19:24.336Z,39936.00
2018-08-28T10:20:24.398Z,46112.00
2018-08-28T10:21:24.283Z,35680.00
2018-08-28T10:22:24.256Z,33888.00
2018-08-28T10:23:24.281Z,32608.00
2018-08-28T10:24:24.212Z,31712.00
2018-08-28T10:25:24.197Z,31136.00
2018-08-28T10:26:24.148Z,30624.00
2018-08-28T10:27:24.154Z,30240.00
2018-08-28T10:28:24.116Z,29888.00
2018-08-28T10:29:24.119Z,29536.00
2018-08-28T10:30:24.147Z,29152.00
2018-08-28T10:31:24.059Z,28896.00
2018-08-28T10:32:24.040Z,28800.00
2018-08-28T10:33:24.079Z,28704.00
2018-08-28T10:34:23.961Z,28832.00
2018-08-28T10:35:23.956Z,28992.00
2018-08-28T10:36:23.919Z,29248.00
2018-08-28T10:37:23.918Z,30304.00
2018-08-28T10:38:23.886Z,30016.00
2018-08-28T10:39:23.832Z,30304.00
2018-08-28T10:40:23.844Z,30432.00
2018-08-28T10:41:23.834Z,31008.00
2018-08-28T10:42:23.730Z,31456.00
2018-08-28T10:43:23.700Z,31904.00
2018-08-28T10:44:23.679Z,33056.00
2018-08-28T10:45:23.664Z,34304.00
2018-08-28T10:46:23.671Z,35072.00
2018-08-28T10:47:23.603Z,35680.00
2018-08-28T10:48:23.624Z,36128.00
2018-08-28T10:49:23.541Z,36416.00
2018-08-28T10:50:23.535Z,36608.00
2018-08-28T10:51:23.495Z,36832.00
2018-08-28T10:52:23.458Z,37248.00
2018-08-28T10:53:23.430Z,37856.00
2018-08-28T10:54:23.404Z,38656.00
2018-08-28T10:55:23.379Z,39584.00
2018-08-28T10:56:23.354Z,40416.00
2018-08-28T10:57:23.330Z,41120.00
2018-08-28T10:58:23.295Z,41344.00
2018-08-28T10:59:23.274Z,41504.00
2018-08-28T11:00:23.243Z,41888.00
2018-08-28T11:01:23.240Z,42432.00
2018-08-28T11:02:23.199Z,42944.00
2018-08-28T11:03:23.159Z,43424.00
2018-08-28T11:04:23.187Z,43456.00
2018-08-28T11:05:23.130Z,42848.00
2018-08-28T11:06:23.092Z,42048.00
2018-08-28T11:07:23.060Z,41632.00
2018-08-28T11:08:23.049Z,42336.00
2018-08-28T11:09:23.018Z,43872.00
2018-08-28T11:10:22.988Z,45280.00
2018-08-28T11:11:22.960Z,47136.00
2018-08-28T11:12:22.925Z,51808.00
2018-08-28T11:13:22.960Z,62496.00
2018-08-28T11:14:22.898Z,56544.00
2018-08-28T11:15:22.898Z,108512.00
2018-08-28T11:16:22.807Z,109600.00
2018-08-28T11:17:22.786Z,87904.00
2018-08-28T11:18:22.763Z,98144.00
2018-08-28T11:19:22.732Z,110912.00
2018-08-28T11:20:22.722Z,96128.00
2018-08-28T11:21:22.680Z,108000.00
2018-08-28T11:22:22.677Z,60192.00
2018-08-28T11:23:22.656Z,114240.00
2018-08-28T11:24:22.658Z,117824.00
2018-08-28T11:25:22.584Z,123808.00
2018-08-28T11:26:22.579Z,126112.00
2018-08-28T11:27:23.189Z,60800.00
2018-08-28T11:28:22.515Z,94400.00
2018-08-28T11:29:22.578Z,112032.00
2018-08-28T11:30:22.465Z,119488.00
2018-08-28T11:31:22.493Z,123200.00
2018-08-28T11:32:22.420Z,119296.00
2018-08-28T11:33:22.404Z,111424.00
2018-08-28T11:34:22.374Z,109824.00
2018-08-28T11:35:22.327Z,47424.00
2018-08-28T11:36:22.313Z,43392.00
2018-08-28T11:37:22.309Z,42048.00
2018-08-28T11:38:22.310Z,40832.00
2018-08-28T11:39:22.274Z,39840.00
2018-08-28T11:40:22.253Z,38848.00
2018-08-28T11:41:22.251Z,38176.00
2018-08-28T11:42:22.173Z,37600.00
2018-08-28T11:43:22.190Z,36800.00
2018-08-28T11:44:22.175Z,35904.00
2018-08-28T11:45:22.103Z,35040.00
2018-08-28T11:46:22.090Z,34944.00
2018-08-28T11:47:22.039Z,35136.00
2018-08-28T11:48:22.029Z,34752.00
2018-08-28T11:49:22.037Z,34304.00
2018-08-28T11:50:21.984Z,34784.00
2018-08-28T11:51:21.952Z,35232.00
2018-08-28T11:52:21.924Z,35648.00
2018-08-28T11:53:22.033Z,36544.00
2018-08-28T11:54:21.891Z,37600.00
2018-08-28T11:55:21.877Z,38720.00
2018-08-28T11:56:21.832Z,43520.00
2018-08-28T11:57:21.798Z,41152.00
2018-08-28T11:58:21.775Z,40000.00
2018-08-28T11:59:21.757Z,39360.00
2018-08-28T12:00:21.739Z,42816.00
2018-08-28T12:01:21.694Z,40960.00
2018-08-28T12:02:21.700Z,43584.00
2018-08-28T12:03:21.680Z,49056.00
2018-08-28T12:04:21.639Z,40512.00
2018-08-28T12:05:21.694Z,39552.00
2018-08-28T12:06:21.572Z,39072.00
2018-08-28T12:07:21.629Z,39712.00
2018-08-28T12:08:21.530Z,40512.00
2018-08-28T12:09:21.500Z,46304.00
2018-08-28T12:10:21.474Z,41696.00
2018-08-28T12:11:21.464Z,39040.00
2018-08-28T12:12:21.424Z,55008.00
2018-08-28T12:13:21.393Z,39264.00
2018-08-28T12:14:21.384Z,38368.00
2018-08-28T12:15:21.371Z,38368.00
2018-08-28T12:16:21.325Z,38592.00
2018-08-28T12:17:21.299Z,40320.00
2018-08-28T12:18:21.287Z,41664.00
2018-08-28T12:19:21.249Z,43968.00
2018-08-28T12:20:21.260Z,45824.00
2018-08-28T12:21:21.197Z,51040.00
2018-08-28T12:22:21.181Z,58432.00
2018-08-28T12:23:21.139Z,63744.00
2018-08-28T12:24:21.131Z,44320.00
2018-08-28T12:25:21.109Z,42464.00
2018-08-28T12:26:21.070Z,38848.00
2018-08-28T12:27:21.066Z,36000.00
2018-08-28T12:28:21.032Z,36512.00
2018-08-28T12:29:21.043Z,39840.00
2018-08-28T12:30:20.983Z,51424.00
2018-08-28T12:31:20.943Z,41408.00
2018-08-28T12:32:20.937Z,38080.00
2018-08-28T12:33:20.891Z,38048.00
2018-08-28T12:34:20.880Z,58848.00
2018-08-28T12:35:20.842Z,68448.00
2018-08-28T12:36:20.819Z,62368.00
2018-08-28T12:37:20.786Z,61696.00
2018-08-28T12:38:20.777Z,55424.00
2018-08-28T12:39:20.749Z,45344.00
2018-08-28T12:40:20.712Z,42976.00
2018-08-28T12:41:20.695Z,62048.00
2018-08-28T12:42:20.676Z,64224.00
2018-08-28T12:43:20.639Z,63872.00
2018-08-28T12:44:20.630Z,60736.00
2018-08-28T12:45:20.574Z,64256.00
2018-08-28T12:46:20.565Z,68832.00
2018-08-28T12:47:20.624Z,63808.00
2018-08-28T12:48:20.563Z,61248.00
2018-08-28T12:49:20.547Z,66304.00
2018-08-28T12:50:20.468Z,71200.00
2018-08-28T12:51:20.530Z,64736.00
2018-08-28T12:52:20.441Z,62688.00
2018-08-28T12:53:20.426Z,61408.00
2018-08-28T12:54:20.366Z,59232.00
2018-08-28T12:55:20.371Z,61312.00
2018-08-28T12:56:20.309Z,62880.00
2018-08-28T12:57:20.291Z,58784.00
2018-08-28T12:58:20.266Z,60160.00
2018-08-28T12:59:20.244Z,70304.00
2018-08-28T13:00:20.214Z,80608.00
2018-08-28T13:01:20.203Z,75360.00
2018-08-28T13:02:20.317Z,64928.00
2018-08-28T13:03:20.159Z,64608.00
2018-08-28T13:04:20.125Z,68576.00
2018-08-28T13:05:20.106Z,72928.00
2018-08-28T13:06:20.074Z,74336.00
2018-08-28T13:07:20.168Z,73152.00
2018-08-28T13:08:20.018Z,73408.00
2018-08-28T13:09:20.020Z,70176.00
2018-08-28T13:10:20.022Z,69664.00
2018-08-28T13:11:19.963Z,64096.00
2018-08-28T13:12:19.941Z,55840.00
2018-08-28T13:13:19.924Z,60352.00
2018-08-28T13:14:19.897Z,59616.00
2018-08-28T13:15:19.878Z,58432.00
2018-08-28T13:16:19.869Z,67136.00
2018-08-28T13:17:19.892Z,71712.00
2018-08-28T13:18:19.826Z,61184.00
2018-08-28T13:19:19.786Z,59904.00
2018-08-28T13:20:19.766Z,62464.00
2018-08-28T13:21:19.733Z,64224.00
2018-08-28T13:22:19.715Z,67072.00
2018-08-28T13:23:19.684Z,66432.00
2018-08-28T13:24:19.674Z,69024.00
2018-08-28T13:25:19.700Z,67328.00
2018-08-28T13:26:19.621Z,61984.00
2018-08-28T13:27:19.611Z,63936.00
2018-08-28T13:28:19.564Z,65440.00
2018-08-28T13:29:19.555Z,65344.00
2018-08-28T13:30:19.539Z,67136.00
2018-08-28T13:31:19.521Z,61088.00
2018-08-28T13:32:19.471Z,53120.00
2018-08-28T13:33:19.484Z,53760.00
2018-08-28T13:34:19.443Z,51392.00
2018-08-28T13:35:19.424Z,53376.00
2018-08-28T13:36:19.399Z,53344.00
2018-08-28T13:37:19.408Z,52384.00
2018-08-28T13:38:19.352Z,53152.00
2018-08-28T13:39:19.332Z,54848.00
2018-08-28T13:40:19.308Z,54272.00
2018-08-28T13:41:19.327Z,58240.00
2018-08-28T13:42:19.273Z,60864.00
2018-08-28T13:43:19.237Z,58944.00
2018-08-28T13:44:19.232Z,62560.00
2018-08-28T13:45:19.187Z,62656.00
2018-08-28T13:46:19.202Z,59136.00
2018-08-28T13:47:19.292Z,62720.00
2018-08-28T13:48:19.175Z,62912.00
2018-08-28T13:49:19.136Z,62912.00
2018-08-28T13:50:19.086Z,62880.00
2018-08-28T13:51:19.097Z,59360.00
2018-08-28T13:52:19.033Z,58880.00
2018-08-28T13:53:19.010Z,56992.00
2018-08-28T13:54:19.038Z,55776.00
2018-08-28T13:55:18.968Z,60608.00
2018-08-28T13:56:18.953Z,65440.00